sensor_id;sensor_type;location;lat;lon;timestamp;pressure;altitude;pressure_sealevel;temperature
59339;BMP280;45117;50.960;5.500;2022-11-11T00:00:48;102051.06;;;8.38
59339;BMP280;45117;50.960;5.500;2022-11-11T00:03:15;102056.06;;;8.40
59339;BMP280;45117;50.960;5.500;2022-11-11T00:05:41;102072.59;;;8.42
59339;BMP280;45117;50.960;5.500;2022-11-11T00:08:08;102071.53;;;8.31
59339;BMP280;45117;50.960;5.500;2022-11-11T00:10:36;102062.97;;;8.25
59339;BMP280;45117;50.960;5.500;2022-11-11T00:13:03;102065.06;;;8.32
59339;BMP280;45117;50.960;5.500;2022-11-11T00:15:30;102071.53;;;8.31
59339;BMP280;45117;50.960;5.500;2022-11-11T00:17:57;102070.28;;;8.28
59339;BMP280;45117;50.960;5.500;2022-11-11T00:20:41;102071.06;;;8.29
59339;BMP280;45117;50.960;5.500;2022-11-11T00:23:26;102071.41;;;8.27
59339;BMP280;45117;50.960;5.500;2022-11-11T00:26:13;102079.38;;;8.24
59339;BMP280;45117;50.960;5.500;2022-11-11T00:28:40;102077.53;;;8.28
59339;BMP280;45117;50.960;5.500;2022-11-11T00:31:08;102078.22;;;8.25
59339;BMP280;45117;50.960;5.500;2022-11-11T00:33:35;102070.34;;;8.16
59339;BMP280;45117;50.960;5.500;2022-11-11T00:36:03;102062.00;;;8.18
59339;BMP280;45117;50.960;5.500;2022-11-11T00:38:28;102071.13;;;8.17
59339;BMP280;45117;50.960;5.500;2022-11-11T00:41:11;102075.38;;;8.18
59339;BMP280;45117;50.960;5.500;2022-11-11T00:43:39;102088.75;;;8.18
59339;BMP280;45117;50.960;5.500;2022-11-11T00:46:05;102083.22;;;8.10
59339;BMP280;45117;50.960;5.500;2022-11-11T00:48:49;102086.84;;;8.02
59339;BMP280;45117;50.960;5.500;2022-11-11T00:51:33;102079.72;;;7.94
59339;BMP280;45117;50.960;5.500;2022-11-11T00:54:00;102084.41;;;7.97
59339;BMP280;45117;50.960;5.500;2022-11-11T00:56:27;102099.03;;;7.88
59339;BMP280;45117;50.960;5.500;2022-11-11T00:58:55;102097.72;;;7.81
59339;BMP280;45117;50.960;5.500;2022-11-11T01:01:21;102083.81;;;7.76
59339;BMP280;45117;50.960;5.500;2022-11-11T01:03:48;102081.81;;;7.73
59339;BMP280;45117;50.960;5.500;2022-11-11T01:06:14;102082.69;;;7.77
59339;BMP280;45117;50.960;5.500;2022-11-11T01:08:41;102077.53;;;7.84
59339;BMP280;45117;50.960;5.500;2022-11-11T01:11:12;102080.13;;;7.80
59339;BMP280;45117;50.960;5.500;2022-11-11T01:13:40;102074.53;;;7.85
59339;BMP280;45117;50.960;5.500;2022-11-11T01:16:11;102074.53;;;7.85
59339;BMP280;45117;50.960;5.500;2022-11-11T01:18:38;102068.94;;;7.91
59339;BMP280;45117;50.960;5.500;2022-11-11T01:21:07;102075.06;;;7.91
59339;BMP280;45117;50.960;5.500;2022-11-11T01:23:35;102075.88;;;7.92
59339;BMP280;45117;50.960;5.500;2022-11-11T01:26:04;102088.84;;;7.93
59339;BMP280;45117;50.960;5.500;2022-11-11T01:28:31;102084.00;;;7.83
59339;BMP280;45117;50.960;5.500;2022-11-11T01:31:01;102080.31;;;7.88
59339;BMP280;45117;50.960;5.500;2022-11-11T01:33:30;102083.00;;;7.88
59339;BMP280;45117;50.960;5.500;2022-11-11T01:36:02;102076.19;;;7.90
59339;BMP280;45117;50.960;5.500;2022-11-11T01:38:29;102071.97;;;7.89
59339;BMP280;45117;50.960;5.500;2022-11-11T01:40:55;102075.66;;;7.84
59339;BMP280;45117;50.960;5.500;2022-11-11T01:43:23;102081.88;;;7.89
59339;BMP280;45117;50.960;5.500;2022-11-11T01:45:53;102082.53;;;7.85
59339;BMP280;45117;50.960;5.500;2022-11-11T01:48:28;102088.16;;;7.80
59339;BMP280;45117;50.960;5.500;2022-11-11T01:51:18;102081.56;;;7.78
59339;BMP280;45117;50.960;5.500;2022-11-11T01:53:48;102090.81;;;7.80
59339;BMP280;45117;50.960;5.500;2022-11-11T01:56:17;102082.03;;;7.80
59339;BMP280;45117;50.960;5.500;2022-11-11T01:58:44;102092.25;;;7.78
59339;BMP280;45117;50.960;5.500;2022-11-11T02:01:10;102087.78;;;7.82
59339;BMP280;45117;50.960;5.500;2022-11-11T02:03:39;102099.81;;;7.88
59339;BMP280;45117;50.960;5.500;2022-11-11T02:06:06;102102.38;;;7.84
59339;BMP280;45117;50.960;5.500;2022-11-11T02:08:35;102101.41;;;7.77
59339;BMP280;45117;50.960;5.500;2022-11-11T02:11:05;102103.53;;;7.71
59339;BMP280;45117;50.960;5.500;2022-11-11T02:13:32;102095.44;;;7.68
59339;BMP280;45117;50.960;5.500;2022-11-11T02:16:20;102090.97;;;7.59
59339;BMP280;45117;50.960;5.500;2022-11-11T02:18:46;102096.31;;;7.59
59339;BMP280;45117;50.960;5.500;2022-11-11T02:21:17;102091.34;;;7.58
59339;BMP280;45117;50.960;5.500;2022-11-11T02:23:52;102077.88;;;7.54
59339;BMP280;45117;50.960;5.500;2022-11-11T02:26:21;102084.75;;;7.55
59339;BMP280;45117;50.960;5.500;2022-11-11T02:28:48;102078.53;;;7.51
59339;BMP280;45117;50.960;5.500;2022-11-11T02:31:15;102077.28;;;7.49
59339;BMP280;45117;50.960;5.500;2022-11-11T02:33:41;102079.19;;;7.48
59339;BMP280;45117;50.960;5.500;2022-11-11T02:36:08;102074.56;;;7.45
59339;BMP280;45117;50.960;5.500;2022-11-11T02:38:40;102067.50;;;7.41
59339;BMP280;45117;50.960;5.500;2022-11-11T02:41:07;102074.31;;;7.38
59339;BMP280;45117;50.960;5.500;2022-11-11T02:43:51;102074.09;;;7.31
59339;BMP280;45117;50.960;5.500;2022-11-11T02:46:18;102067.56;;;7.28
59339;BMP280;45117;50.960;5.500;2022-11-11T02:48:44;102071.00;;;7.29
59339;BMP280;45117;50.960;5.500;2022-11-11T02:51:11;102071.66;;;7.26
59339;BMP280;45117;50.960;5.500;2022-11-11T02:53:37;102069.25;;;7.21
59339;BMP280;45117;50.960;5.500;2022-11-11T02:56:04;102060.78;;;7.19
59339;BMP280;45117;50.960;5.500;2022-11-11T02:58:32;102061.75;;;7.14
59339;BMP280;45117;50.960;5.500;2022-11-11T03:00:59;102066.22;;;7.10
59339;BMP280;45117;50.960;5.500;2022-11-11T03:03:25;102068.13;;;7.10
59339;BMP280;45117;50.960;5.500;2022-11-11T03:05:52;102066.56;;;7.09
59339;BMP280;45117;50.960;5.500;2022-11-11T03:08:18;102068.13;;;7.10
59339;BMP280;45117;50.960;5.500;2022-11-11T03:10:45;102069.91;;;7.06
59339;BMP280;45117;50.960;5.500;2022-11-11T03:13:12;102064.22;;;7.07
59339;BMP280;45117;50.960;5.500;2022-11-11T03:15:41;102069.56;;;7.07
59339;BMP280;45117;50.960;5.500;2022-11-11T03:18:07;102062.22;;;7.04
59339;BMP280;45117;50.960;5.500;2022-11-11T03:20:33;102053.75;;;7.02
59339;BMP280;45117;50.960;5.500;2022-11-11T03:23:17;102061.47;;;7.03
59339;BMP280;45117;50.960;5.500;2022-11-11T03:25:45;102057.88;;;6.99
59339;BMP280;45117;50.960;5.500;2022-11-11T03:28:12;102065.56;;;7.01
59339;BMP280;45117;50.960;5.500;2022-11-11T03:30:42;102065.91;;;6.99
59339;BMP280;45117;50.960;5.500;2022-11-11T03:33:09;102071.78;;;6.93
59339;BMP280;45117;50.960;5.500;2022-11-11T03:35:36;102062.53;;;6.90
59339;BMP280;45117;50.960;5.500;2022-11-11T03:38:04;102064.44;;;6.90
59339;BMP280;45117;50.960;5.500;2022-11-11T03:40:50;102063.22;;;6.87
59339;BMP280;45117;50.960;5.500;2022-11-11T03:43:18;102060.91;;;6.86
59339;BMP280;45117;50.960;5.500;2022-11-11T03:45:46;102052.78;;;6.82
59339;BMP280;45117;50.960;5.500;2022-11-11T03:48:13;102042.78;;;6.79
59339;BMP280;45117;50.960;5.500;2022-11-11T03:50:40;102052.97;;;6.77
59339;BMP280;45117;50.960;5.500;2022-11-11T03:53:07;102049.22;;;6.78
59339;BMP280;45117;50.960;5.500;2022-11-11T03:55:34;102043.41;;;6.76
59339;BMP280;45117;50.960;5.500;2022-11-11T03:58:00;102047.63;;;6.77
59339;BMP280;45117;50.960;5.500;2022-11-11T04:00:27;102051.09;;;6.77
59339;BMP280;45117;50.960;5.500;2022-11-11T04:03:02;102049.78;;;6.84
59339;BMP280;45117;50.960;5.500;2022-11-11T04:05:46;102043.97;;;6.82
59339;BMP280;45117;50.960;5.500;2022-11-11T04:08:41;102037.88;;;6.81
59339;BMP280;45117;50.960;5.500;2022-11-11T04:11:24;102045.22;;;6.84
59339;BMP280;45117;50.960;5.500;2022-11-11T04:13:51;102042.56;;;6.84
59339;BMP280;45117;50.960;5.500;2022-11-11T04:16:35;102043.31;;;6.85
59339;BMP280;45117;50.960;5.500;2022-11-11T04:19:03;102044.44;;;6.84
59339;BMP280;45117;50.960;5.500;2022-11-11T04:21:47;102045.22;;;6.84
59339;BMP280;45117;50.960;5.500;2022-11-11T04:24:16;102041.31;;;6.82
59339;BMP280;45117;50.960;5.500;2022-11-11T04:27:02;102043.19;;;6.81
59339;BMP280;45117;50.960;5.500;2022-11-11T04:29:29;102039.31;;;6.79
59339;BMP280;45117;50.960;5.500;2022-11-11T04:31:56;102043.19;;;6.81
59339;BMP280;45117;50.960;5.500;2022-11-11T04:34:43;102044.31;;;6.80
59339;BMP280;45117;50.960;5.500;2022-11-11T04:37:10;102048.53;;;6.81
59339;BMP280;45117;50.960;5.500;2022-11-11T04:39:37;102054.34;;;6.83
59339;BMP280;45117;50.960;5.500;2022-11-11T04:42:22;102045.44;;;6.79
59339;BMP280;45117;50.960;5.500;2022-11-11T04:44:48;102053.88;;;6.81
59339;BMP280;45117;50.960;5.500;2022-11-11T04:47:32;102061.09;;;6.81
59339;BMP280;45117;50.960;5.500;2022-11-11T04:50:00;102067.22;;;6.81
59339;BMP280;45117;50.960;5.500;2022-11-11T04:52:27;102050.78;;;6.79
59339;BMP280;45117;50.960;5.500;2022-11-11T04:54:55;102052.78;;;6.82
59339;BMP280;45117;50.960;5.500;2022-11-11T04:57:40;102064.91;;;6.80
59339;BMP280;45117;50.960;5.500;2022-11-11T05:00:09;102060.13;;;6.85
59339;BMP280;45117;50.960;5.500;2022-11-11T05:02:36;102054.66;;;6.82
59339;BMP280;45117;50.960;5.500;2022-11-11T05:05:22;102049.00;;;6.83
59339;BMP280;45117;50.960;5.500;2022-11-11T05:07:48;102058.00;;;6.79
59339;BMP280;45117;50.960;5.500;2022-11-11T05:10:32;102056.75;;;6.76
59339;BMP280;45117;50.960;5.500;2022-11-11T05:12:59;102045.56;;;6.70
59339;BMP280;45117;50.960;5.500;2022-11-11T05:15:41;102051.44;;;6.76
59339;BMP280;45117;50.960;5.500;2022-11-11T05:18:25;102057.78;;;6.71
59339;BMP280;45117;50.960;5.500;2022-11-11T05:21:11;102059.00;;;6.74
59339;BMP280;45117;50.960;5.500;2022-11-11T05:23:45;102052.97;;;6.77
59339;BMP280;45117;50.960;5.500;2022-11-11T05:26:29;102054.00;;;6.72
59339;BMP280;45117;50.960;5.500;2022-11-11T05:28:56;102063.91;;;6.72
59339;BMP280;45117;50.960;5.500;2022-11-11T05:31:23;102067.88;;;6.66
59339;BMP280;45117;50.960;5.500;2022-11-11T05:33:49;102057.00;;;6.71
59339;BMP280;45117;50.960;5.500;2022-11-11T05:36:17;102050.00;;;6.79
59339;BMP280;45117;50.960;5.500;2022-11-11T05:38:44;102052.78;;;6.70
59339;BMP280;45117;50.960;5.500;2022-11-11T05:41:10;102054.97;;;6.68
59339;BMP280;45117;50.960;5.500;2022-11-11T05:43:37;102063.22;;;6.75
59339;BMP280;45117;50.960;5.500;2022-11-11T05:46:03;102060.53;;;6.75
59339;BMP280;45117;50.960;5.500;2022-11-11T05:48:30;102071.22;;;6.75
59339;BMP280;45117;50.960;5.500;2022-11-11T05:50:57;102072.44;;;6.77
59339;BMP280;45117;50.960;5.500;2022-11-11T05:53:25;102072.78;;;6.76
59339;BMP280;45117;50.960;5.500;2022-11-11T05:55:52;102070.44;;;6.74
59339;BMP280;45117;50.960;5.500;2022-11-11T05:58:19;102071.66;;;6.77
59339;BMP280;45117;50.960;5.500;2022-11-11T06:00:46;102074.91;;;6.83
59339;BMP280;45117;50.960;5.500;2022-11-11T06:03:12;102076.56;;;6.75
59339;BMP280;45117;50.960;5.500;2022-11-11T06:05:39;102073.25;;;6.78
59339;BMP280;45117;50.960;5.500;2022-11-11T06:08:05;102083.91;;;6.78
59339;BMP280;45117;50.960;5.500;2022-11-11T06:10:33;102079.22;;;6.75
59339;BMP280;45117;50.960;5.500;2022-11-11T06:13:00;102086.88;;;6.76
59339;BMP280;45117;50.960;5.500;2022-11-11T06:15:35;102083.09;;;6.77
59339;BMP280;45117;50.960;5.500;2022-11-11T06:18:03;102082.81;;;6.79
59339;BMP280;45117;50.960;5.500;2022-11-11T06:22:59;102082.34;;;6.77
59339;BMP280;45117;50.960;5.500;2022-11-11T06:25:27;102080.78;;;6.76
59339;BMP280;45117;50.960;5.500;2022-11-11T06:28:13;102077.59;;;6.83
59339;BMP280;45117;50.960;5.500;2022-11-11T06:30:40;102076.56;;;6.87
59339;BMP280;45117;50.960;5.500;2022-11-11T06:33:07;102073.69;;;6.92
59339;BMP280;45117;50.960;5.500;2022-11-11T06:35:34;102080.91;;;6.92
59339;BMP280;45117;50.960;5.500;2022-11-11T06:38:01;102079.16;;;6.96
59339;BMP280;45117;50.960;5.500;2022-11-11T06:40:27;102079.81;;;6.93
59339;BMP280;45117;50.960;5.500;2022-11-11T06:42:58;102087.38;;;6.91
59339;BMP280;45117;50.960;5.500;2022-11-11T06:45:28;102095.47;;;6.94
59339;BMP280;45117;50.960;5.500;2022-11-11T06:47:54;102094.56;;;6.90
59339;BMP280;45117;50.960;5.500;2022-11-11T06:50:21;102094.50;;;6.99
59339;BMP280;45117;50.960;5.500;2022-11-11T06:52:48;102090.47;;;6.93
59339;BMP280;45117;50.960;5.500;2022-11-11T06:55:14;102101.63;;;6.95
59339;BMP280;45117;50.960;5.500;2022-11-11T06:57:41;102098.28;;;6.98
59339;BMP280;45117;50.960;5.500;2022-11-11T07:00:08;102102.94;;;7.01
59339;BMP280;45117;50.960;5.500;2022-11-11T07:02:36;102101.50;;;7.03
59339;BMP280;45117;50.960;5.500;2022-11-11T07:05:03;102101.16;;;7.05
59339;BMP280;45117;50.960;5.500;2022-11-11T07:07:30;102115.63;;;7.04
59339;BMP280;45117;50.960;5.500;2022-11-11T07:09:57;102113.28;;;7.02
59339;BMP280;45117;50.960;5.500;2022-11-11T07:12:23;102117.75;;;7.11
59339;BMP280;45117;50.960;5.500;2022-11-11T07:14:50;102119.72;;;7.14
59339;BMP280;45117;50.960;5.500;2022-11-11T07:17:17;102111.72;;;7.14
59339;BMP280;45117;50.960;5.500;2022-11-11T07:19:44;102118.75;;;7.18
59339;BMP280;45117;50.960;5.500;2022-11-11T07:22:11;102122.41;;;7.26
59339;BMP280;45117;50.960;5.500;2022-11-11T07:24:37;102130.84;;;7.28
59339;BMP280;45117;50.960;5.500;2022-11-11T07:27:04;102124.41;;;7.29
59339;BMP280;45117;50.960;5.500;2022-11-11T07:29:30;102132.88;;;7.31
59339;BMP280;45117;50.960;5.500;2022-11-11T07:31:57;102130.06;;;7.40
59339;BMP280;45117;50.960;5.500;2022-11-11T07:34:23;102132.44;;;7.41
59339;BMP280;45117;50.960;5.500;2022-11-11T07:36:51;102136.78;;;7.46
59339;BMP280;45117;50.960;5.500;2022-11-11T07:39:18;102145.31;;;7.51
59339;BMP280;45117;50.960;5.500;2022-11-11T07:41:45;102148.88;;;7.55
59339;BMP280;45117;50.960;5.500;2022-11-11T07:44:11;102154.66;;;7.57
59339;BMP280;45117;50.960;5.500;2022-11-11T07:46:38;102158.78;;;7.67
59339;BMP280;45117;50.960;5.500;2022-11-11T07:49:04;102155.19;;;7.75
59339;BMP280;45117;50.960;5.500;2022-11-11T07:51:31;102161.09;;;7.81
59339;BMP280;45117;50.960;5.500;2022-11-11T07:53:59;102163.97;;;7.88
59339;BMP280;45117;50.960;5.500;2022-11-11T07:56:25;102162.59;;;7.94
59339;BMP280;45117;50.960;5.500;2022-11-11T07:58:52;102160.59;;;8.03
59339;BMP280;45117;50.960;5.500;2022-11-11T08:01:18;102163.13;;;8.12
59339;BMP280;45117;50.960;5.500;2022-11-11T08:03:45;102175.25;;;8.22
59339;BMP280;45117;50.960;5.500;2022-11-11T08:06:15;102171.66;;;8.30
59339;BMP280;45117;50.960;5.500;2022-11-11T08:08:41;102172.25;;;8.39
59339;BMP280;45117;50.960;5.500;2022-11-11T08:11:09;102173.66;;;8.49
59339;BMP280;45117;50.960;5.500;2022-11-11T08:13:36;102178.06;;;8.57
59339;BMP280;45117;50.960;5.500;2022-11-11T08:16:05;102173.00;;;8.67
59339;BMP280;45117;50.960;5.500;2022-11-11T08:18:32;102174.38;;;8.77
59339;BMP280;45117;50.960;5.500;2022-11-11T08:20:58;102174.25;;;8.86
59339;BMP280;45117;50.960;5.500;2022-11-11T08:23:25;102166.38;;;8.93
59339;BMP280;45117;50.960;5.500;2022-11-11T08:25:57;102171.56;;;9.02
59339;BMP280;45117;50.960;5.500;2022-11-11T08:28:25;102170.25;;;9.11
59339;BMP280;45117;50.960;5.500;2022-11-11T08:30:52;102174.66;;;9.19
59339;BMP280;45117;50.960;5.500;2022-11-11T08:33:19;102180.94;;;9.27
59339;BMP280;45117;50.960;5.500;2022-11-11T08:35:46;102184.94;;;9.33
59339;BMP280;45117;50.960;5.500;2022-11-11T08:38:13;102182.41;;;9.40
59339;BMP280;45117;50.960;5.500;2022-11-11T08:40:39;102184.53;;;9.50
59339;BMP280;45117;50.960;5.500;2022-11-11T08:43:06;102186.31;;;9.62
59339;BMP280;45117;50.960;5.500;2022-11-11T08:45:34;102183.03;;;9.69
59339;BMP280;45117;50.960;5.500;2022-11-11T08:48:00;102183.97;;;9.76
59339;BMP280;45117;50.960;5.500;2022-11-11T08:50:26;102174.56;;;9.86
59339;BMP280;45117;50.960;5.500;2022-11-11T08:52:53;102170.81;;;9.91
59339;BMP280;45117;50.960;5.500;2022-11-11T08:55:19;102177.88;;;9.99
59339;BMP280;45117;50.960;5.500;2022-11-11T08:57:46;102172.66;;;10.06
59339;BMP280;45117;50.960;5.500;2022-11-11T09:00:13;102174.34;;;10.14
59339;BMP280;45117;50.960;5.500;2022-11-11T09:02:41;102175.94;;;10.38
59339;BMP280;45117;50.960;5.500;2022-11-11T09:05:08;102185.91;;;10.60
59339;BMP280;45117;50.960;5.500;2022-11-11T09:07:35;102181.16;;;10.73
59339;BMP280;45117;50.960;5.500;2022-11-11T09:10:01;102189.13;;;10.92
59339;BMP280;45117;50.960;5.500;2022-11-11T09:12:28;102186.81;;;11.17
59339;BMP280;45117;50.960;5.500;2022-11-11T09:14:54;102184.59;;;11.19
59339;BMP280;45117;50.960;5.500;2022-11-11T09:17:21;102189.63;;;11.51
59339;BMP280;45117;50.960;5.500;2022-11-11T09:19:48;102186.91;;;11.51
59339;BMP280;45117;50.960;5.500;2022-11-11T09:22:15;102192.09;;;11.67
59339;BMP280;45117;50.960;5.500;2022-11-11T09:24:41;102188.91;;;11.88
59339;BMP280;45117;50.960;5.500;2022-11-11T09:27:09;102194.09;;;12.07
59339;BMP280;45117;50.960;5.500;2022-11-11T09:29:35;102195.69;;;12.12
59339;BMP280;45117;50.960;5.500;2022-11-11T09:32:02;102191.03;;;12.46
59339;BMP280;45117;50.960;5.500;2022-11-11T09:34:29;102191.91;;;12.57
59339;BMP280;45117;50.960;5.500;2022-11-11T09:36:57;102179.69;;;12.70
59339;BMP280;45117;50.960;5.500;2022-11-11T09:39:23;102184.91;;;13.07
59339;BMP280;45117;50.960;5.500;2022-11-11T09:41:55;102187.41;;;13.30
59339;BMP280;45117;50.960;5.500;2022-11-11T09:44:38;102192.75;;;13.27
59339;BMP280;45117;50.960;5.500;2022-11-11T09:47:11;102191.19;;;13.18
59339;BMP280;45117;50.960;5.500;2022-11-11T09:49:57;102189.00;;;13.49
59339;BMP280;45117;50.960;5.500;2022-11-11T09:52:30;102194.88;;;13.65
59339;BMP280;45117;50.960;5.500;2022-11-11T09:55:01;102199.13;;;13.73
59339;BMP280;45117;50.960;5.500;2022-11-11T09:57:33;102186.75;;;13.62
59339;BMP280;45117;50.960;5.500;2022-11-11T10:00:03;102199.44;;;13.50
59339;BMP280;45117;50.960;5.500;2022-11-11T10:02:37;102189.38;;;13.44
59339;BMP280;45117;50.960;5.500;2022-11-11T10:05:10;102199.38;;;13.40
59339;BMP280;45117;50.960;5.500;2022-11-11T10:07:43;102195.94;;;13.43
59339;BMP280;45117;50.960;5.500;2022-11-11T10:10:19;102199.78;;;13.45
59339;BMP280;45117;50.960;5.500;2022-11-11T10:12:53;102198.63;;;13.46
59339;BMP280;45117;50.960;5.500;2022-11-11T10:15:20;102198.25;;;13.48
59339;BMP280;45117;50.960;5.500;2022-11-11T10:18:00;102199.06;;;13.52
59339;BMP280;45117;50.960;5.500;2022-11-11T10:20:32;102204.47;;;13.66
59339;BMP280;45117;50.960;5.500;2022-11-11T10:23:11;102203.00;;;13.79
59339;BMP280;45117;50.960;5.500;2022-11-11T10:25:43;102211.41;;;13.60
59339;BMP280;45117;50.960;5.500;2022-11-11T10:28:14;102211.06;;;13.72
59339;BMP280;45117;50.960;5.500;2022-11-11T10:30:42;102206.84;;;13.71
59339;BMP280;45117;50.960;5.500;2022-11-11T10:33:14;102199.88;;;13.70
59339;BMP280;45117;50.960;5.500;2022-11-11T10:35:42;102205.28;;;13.70
59339;BMP280;45117;50.960;5.500;2022-11-11T10:38:22;102199.03;;;13.48
59339;BMP280;45117;50.960;5.500;2022-11-11T10:40:52;102198.31;;;13.62
59339;BMP280;45117;50.960;5.500;2022-11-11T10:43:21;102192.13;;;13.62
59339;BMP280;45117;50.960;5.500;2022-11-11T10:45:53;102200.28;;;13.65
59339;BMP280;45117;50.960;5.500;2022-11-11T10:48:30;102197.56;;;13.65
59339;BMP280;45117;50.960;5.500;2022-11-11T10:51:01;102195.25;;;13.71
59339;BMP280;45117;50.960;5.500;2022-11-11T10:53:34;102199.16;;;13.80
59339;BMP280;45117;50.960;5.500;2022-11-11T10:56:09;102201.09;;;13.83
59339;BMP280;45117;50.960;5.500;2022-11-11T10:58:44;102201.47;;;13.82
59339;BMP280;45117;50.960;5.500;2022-11-11T11:01:15;102203.03;;;13.87
59339;BMP280;45117;50.960;5.500;2022-11-11T11:03:46;102201.09;;;13.91
59339;BMP280;45117;50.960;5.500;2022-11-11T11:06:21;102206.09;;;13.92
59339;BMP280;45117;50.960;5.500;2022-11-11T11:08:53;102209.59;;;13.93
59339;BMP280;45117;50.960;5.500;2022-11-11T11:11:22;102208.06;;;13.99
59339;BMP280;45117;50.960;5.500;2022-11-11T11:13:51;102206.16;;;14.03
59339;BMP280;45117;50.960;5.500;2022-11-11T11:16:21;102202.28;;;14.00
59339;BMP280;45117;50.960;5.500;2022-11-11T11:19:18;102203.81;;;13.98
59339;BMP280;45117;50.960;5.500;2022-11-11T11:21:53;102206.16;;;14.10
59339;BMP280;45117;50.960;5.500;2022-11-11T11:24:23;102209.63;;;14.10
59339;BMP280;45117;50.960;5.500;2022-11-11T11:26:52;102195.75;;;14.16
59339;BMP280;45117;50.960;5.500;2022-11-11T11:29:27;102187.63;;;14.12
59339;BMP280;45117;50.960;5.500;2022-11-11T11:31:55;102192.28;;;14.19
59339;BMP280;45117;50.960;5.500;2022-11-11T11:34:41;102188.44;;;14.20
59339;BMP280;45117;50.960;5.500;2022-11-11T11:37:08;102193.84;;;14.20
59339;BMP280;45117;50.960;5.500;2022-11-11T11:39:37;102186.09;;;14.29
59339;BMP280;45117;50.960;5.500;2022-11-11T11:42:04;102183.06;;;14.27
59339;BMP280;45117;50.960;5.500;2022-11-11T11:44:32;102186.09;;;14.29
59339;BMP280;45117;50.960;5.500;2022-11-11T11:47:16;102182.66;;;14.35
59339;BMP280;45117;50.960;5.500;2022-11-11T11:50:05;102184.97;;;14.40
59339;BMP280;45117;50.960;5.500;2022-11-11T11:52:38;102188.44;;;14.41
59339;BMP280;45117;50.960;5.500;2022-11-11T11:55:13;102184.56;;;14.53
59339;BMP280;45117;50.960;5.500;2022-11-11T11:57:52;102185.34;;;14.53
59339;BMP280;45117;50.960;5.500;2022-11-11T12:00:23;102188.44;;;14.52
59339;BMP280;45117;50.960;5.500;2022-11-11T12:03:23;102181.13;;;14.56
59339;BMP280;45117;50.960;5.500;2022-11-11T12:06:00;102190.75;;;14.53
59339;BMP280;45117;50.960;5.500;2022-11-11T12:08:45;102193.84;;;14.55
59339;BMP280;45117;50.960;5.500;2022-11-11T12:11:21;102196.94;;;14.54
59339;BMP280;45117;50.960;5.500;2022-11-11T12:14:07;102193.06;;;14.65
59339;BMP280;45117;50.960;5.500;2022-11-11T12:16:42;102199.22;;;14.69
59339;BMP280;45117;50.960;5.500;2022-11-11T12:19:26;102196.16;;;14.64
59339;BMP280;45117;50.960;5.500;2022-11-11T12:22:02;102188.44;;;14.66
59339;BMP280;45117;50.960;5.500;2022-11-11T12:24:39;102184.56;;;14.63
59339;BMP280;45117;50.960;5.500;2022-11-11T12:27:16;102191.53;;;14.64
59339;BMP280;45117;50.960;5.500;2022-11-11T12:29:55;102177.63;;;14.73
59339;BMP280;45117;50.960;5.500;2022-11-11T12:32:33;102183.38;;;14.71
59339;BMP280;45117;50.960;5.500;2022-11-11T12:35:24;102180.31;;;14.73
59339;BMP280;45117;50.960;5.500;2022-11-11T12:38:00;102179.16;;;14.78
59339;BMP280;45117;50.960;5.500;2022-11-11T12:40:34;102174.88;;;14.80
59339;BMP280;45117;50.960;5.500;2022-11-11T12:43:16;102171.00;;;14.85
59339;BMP280;45117;50.960;5.500;2022-11-11T12:45:46;102166.75;;;14.91
59339;BMP280;45117;50.960;5.500;2022-11-11T12:48:28;102164.06;;;14.98
59339;BMP280;45117;50.960;5.500;2022-11-11T12:51:04;102162.13;;;14.91
59339;BMP280;45117;50.960;5.500;2022-11-11T12:53:36;102161.72;;;14.96
59339;BMP280;45117;50.960;5.500;2022-11-11T12:56:13;102164.00;;;15.01
59339;BMP280;45117;50.960;5.500;2022-11-11T12:58:49;102155.88;;;15.01
59339;BMP280;45117;50.960;5.500;2022-11-11T13:01:23;102158.22;;;15.10
59339;BMP280;45117;50.960;5.500;2022-11-11T13:04:07;102146.63;;;15.02
59339;BMP280;45117;50.960;5.500;2022-11-11T13:06:43;102149.34;;;15.02
59339;BMP280;45117;50.960;5.500;2022-11-11T13:09:31;102147.75;;;15.05
59339;BMP280;45117;50.960;5.500;2022-11-11T13:12:05;102142.34;;;15.09
59339;BMP280;45117;50.960;5.500;2022-11-11T13:14:50;102134.22;;;15.09
59339;BMP280;45117;50.960;5.500;2022-11-11T13:17:19;102118.06;;;14.94
59339;BMP280;45117;50.960;5.500;2022-11-11T13:19:50;102123.81;;;15.03
59339;BMP280;45117;50.960;5.500;2022-11-11T13:22:21;102125.00;;;15.02
59339;BMP280;45117;50.960;5.500;2022-11-11T13:24:49;102122.63;;;15.04
59339;BMP280;45117;50.960;5.500;2022-11-11T13:27:22;102118.84;;;14.98
59339;BMP280;45117;50.960;5.500;2022-11-11T13:30:16;102111.06;;;15.00
59339;BMP280;45117;50.960;5.500;2022-11-11T13:32:47;102115.31;;;15.01
59339;BMP280;45117;50.960;5.500;2022-11-11T13:35:21;102118.00;;;15.05
59339;BMP280;45117;50.960;5.500;2022-11-11T13:37:48;102116.84;;;15.10
59339;BMP280;45117;50.960;5.500;2022-11-11T13:40:33;102119.16;;;15.08
59339;BMP280;45117;50.960;5.500;2022-11-11T13:43:01;102119.91;;;15.15
59339;BMP280;45117;50.960;5.500;2022-11-11T13:45:33;102115.72;;;15.03
59339;BMP280;45117;50.960;5.500;2022-11-11T13:48:01;102117.66;;;15.03
59339;BMP280;45117;50.960;5.500;2022-11-11T13:50:31;102121.47;;;15.06
59339;BMP280;45117;50.960;5.500;2022-11-11T13:53:01;102121.13;;;15.00
59339;BMP280;45117;50.960;5.500;2022-11-11T13:55:31;102119.59;;;15.02
59339;BMP280;45117;50.960;5.500;2022-11-11T13:57:58;102118.41;;;15.00
59339;BMP280;45117;50.960;5.500;2022-11-11T14:00:30;102121.53;;;14.91
59339;BMP280;45117;50.960;5.500;2022-11-11T14:03:57;102118.84;;;14.88
59339;BMP280;45117;50.960;5.500;2022-11-11T14:06:50;102121.53;;;14.88
59339;BMP280;45117;50.960;5.500;2022-11-11T14:09:55;102116.53;;;14.83
59339;BMP280;45117;50.960;5.500;2022-11-11T14:12:38;102122.34;;;14.78
59339;BMP280;45117;50.960;5.500;2022-11-11T14:15:41;102117.72;;;14.78
59339;BMP280;45117;50.960;5.500;2022-11-11T14:18:10;102115.03;;;14.75
59339;BMP280;45117;50.960;5.500;2022-11-11T14:20:56;102115.78;;;14.71
59339;BMP280;45117;50.960;5.500;2022-11-11T14:23:32;102113.13;;;14.64
59339;BMP280;45117;50.960;5.500;2022-11-11T14:28:58;102110.84;;;14.56
59339;BMP280;45117;50.960;5.500;2022-11-11T14:31:55;102109.66;;;14.50
59339;BMP280;45117;50.960;5.500;2022-11-11T14:37:26;102108.91;;;14.35